createdAt,value
2023-03-16T00:00:19.345Z,-2.60
2023-03-16T00:02:46.305Z,-2.60
2023-03-16T00:05:14.431Z,-2.60
2023-03-16T00:07:44.475Z,-2.60
2023-03-16T00:10:13.233Z,-2.70
2023-03-16T00:12:43.471Z,-2.70
2023-03-16T00:15:11.890Z,-2.70
2023-03-16T00:17:38.997Z,-2.80
2023-03-16T00:20:07.144Z,-2.70
2023-03-16T00:22:34.480Z,-2.80
2023-03-16T00:25:01.923Z,-2.80
2023-03-16T00:27:29.539Z,-2.80
2023-03-16T00:29:57.005Z,-2.70
2023-03-16T00:32:31.892Z,-2.70
2023-03-16T00:34:59.986Z,-2.70
2023-03-16T00:37:28.394Z,-2.70
2023-03-16T00:39:56.355Z,-2.70
2023-03-16T00:42:29.853Z,-2.70
2023-03-16T00:44:58.210Z,-2.70
2023-03-16T00:47:31.454Z,-2.80
2023-03-16T00:49:59.466Z,-2.80
2023-03-16T00:52:28.134Z,-2.90
2023-03-16T00:54:56.306Z,-2.90
2023-03-16T00:57:25.962Z,-2.90
2023-03-16T00:59:52.916Z,-2.90
2023-03-16T01:02:23.479Z,-2.90
2023-03-16T01:04:52.383Z,-2.90
2023-03-16T01:07:20.690Z,-2.90
2023-03-16T01:09:48.152Z,-2.90
2023-03-16T01:12:18.353Z,-3.00
2023-03-16T01:14:48.912Z,-3.00
2023-03-16T01:17:17.981Z,-3.10
2023-03-16T01:19:46.109Z,-3.00
2023-03-16T01:22:13.747Z,-3.00
2023-03-16T01:24:42.602Z,-2.90
2023-03-16T01:27:09.545Z,-2.80
2023-03-16T01:29:37.551Z,-2.70
2023-03-16T01:32:05.473Z,-2.70
2023-03-16T01:34:33.620Z,-2.60
2023-03-16T01:37:01.380Z,-2.60
2023-03-16T01:39:32.810Z,-2.60
2023-03-16T01:41:59.881Z,-2.60
2023-03-16T01:44:32.706Z,-2.60
2023-03-16T01:46:59.464Z,-2.70
2023-03-16T01:49:34.040Z,-2.70
2023-03-16T01:52:10.382Z,-2.70
2023-03-16T01:54:47.191Z,-2.60
2023-03-16T01:57:23.691Z,-2.60
2023-03-16T02:00:10.728Z,-2.50
2023-03-16T02:02:43.676Z,-2.60
2023-03-16T02:05:24.437Z,-2.60
2023-03-16T02:07:58.678Z,-2.60
2023-03-16T02:10:28.921Z,-2.50
2023-03-16T02:12:57.964Z,-2.50
2023-03-16T02:15:25.735Z,-2.50
2023-03-16T02:17:52.979Z,-2.40
2023-03-16T02:21:01.588Z,-2.40
2023-03-16T02:23:29.536Z,-2.40
2023-03-16T02:26:23.223Z,-2.40
2023-03-16T02:29:18.964Z,-2.30
2023-03-16T02:31:47.266Z,-2.30
2023-03-16T02:34:17.191Z,-2.40
2023-03-16T02:36:47.964Z,-2.40
2023-03-16T02:39:14.742Z,-2.30
2023-03-16T02:41:41.901Z,-2.30
2023-03-16T02:44:16.114Z,-2.30
2023-03-16T02:46:46.193Z,-2.40
2023-03-16T02:49:24.990Z,-2.40
2023-03-16T02:51:52.410Z,-2.40
2023-03-16T02:54:19.966Z,-2.30
2023-03-16T02:56:47.030Z,-2.40
2023-03-16T02:59:13.969Z,-2.40
2023-03-16T03:01:40.820Z,-2.40
2023-03-16T03:04:08.720Z,-2.40
2023-03-16T03:06:35.996Z,-2.30
2023-03-16T03:09:03.959Z,-2.30
2023-03-16T03:11:31.031Z,-2.30
2023-03-16T03:13:58.515Z,-2.20
2023-03-16T03:16:25.765Z,-2.30
2023-03-16T03:18:52.797Z,-2.30
2023-03-16T03:21:20.733Z,-2.30
2023-03-16T03:23:47.857Z,-2.30
2023-03-16T03:26:15.450Z,-2.30
2023-03-16T03:28:42.453Z,-2.20
2023-03-16T03:31:22.236Z,-2.20
2023-03-16T03:33:49.539Z,-2.10
2023-03-16T03:36:16.515Z,-2.10
2023-03-16T03:38:44.270Z,-2.10
2023-03-16T03:41:11.231Z,-2.10
2023-03-16T03:43:38.099Z,-2.10
2023-03-16T03:46:05.348Z,-2.10
2023-03-16T03:48:32.428Z,-2.00
2023-03-16T03:50:59.271Z,-2.10
2023-03-16T03:53:26.300Z,-2.00
2023-03-16T03:55:53.165Z,-2.00
2023-03-16T03:58:20.071Z,-2.00
2023-03-16T04:00:47.091Z,-1.90
2023-03-16T04:03:14.250Z,-1.90
2023-03-16T04:05:41.196Z,-1.90
2023-03-16T04:08:08.035Z,-1.80
2023-03-16T04:10:35.122Z,-1.80
2023-03-16T04:13:01.963Z,-1.80
2023-03-16T04:15:28.770Z,-1.70
2023-03-16T04:17:55.580Z,-1.60
2023-03-16T04:20:23.546Z,-1.70
2023-03-16T04:22:58.276Z,-1.60
2023-03-16T04:25:27.266Z,-1.70
2023-03-16T04:27:54.493Z,-1.70
2023-03-16T04:30:23.430Z,-1.60
2023-03-16T04:32:51.313Z,-1.60
2023-03-16T04:35:18.799Z,-1.60
2023-03-16T04:37:45.571Z,-1.50
2023-03-16T04:40:16.121Z,-1.50
2023-03-16T04:42:47.617Z,-1.40
2023-03-16T04:45:15.996Z,-1.30
2023-03-16T04:47:42.956Z,-1.30
2023-03-16T04:50:10.781Z,-1.20
2023-03-16T04:52:38.038Z,-1.20
2023-03-16T04:55:06.045Z,-1.20
2023-03-16T04:57:34.381Z,-1.20
2023-03-16T05:00:01.213Z,-1.20
2023-03-16T05:02:28.302Z,-1.20
2023-03-16T05:04:55.191Z,-1.20
2023-03-16T05:07:21.967Z,-1.20
2023-03-16T05:09:48.947Z,-1.10
2023-03-16T05:12:15.789Z,-1.10
2023-03-16T05:14:42.605Z,-1.10
2023-03-16T05:17:09.480Z,-1.10
2023-03-16T05:19:36.260Z,-1.10
2023-03-16T05:22:03.013Z,-1.10
2023-03-16T05:24:29.871Z,-1.20
2023-03-16T05:26:57.557Z,-1.20
2023-03-16T05:29:26.034Z,-1.30
2023-03-16T05:31:52.885Z,-1.30
2023-03-16T05:34:19.651Z,-1.40
2023-03-16T05:36:46.485Z,-1.40
2023-03-16T05:39:13.321Z,-1.40
2023-03-16T05:41:41.116Z,-1.40
2023-03-16T05:44:08.778Z,-1.40
2023-03-16T05:46:35.616Z,-1.30
2023-03-16T05:49:03.373Z,-1.30
2023-03-16T05:51:34.598Z,-1.20
2023-03-16T05:54:01.403Z,-1.10
2023-03-16T05:56:29.348Z,-1.00
2023-03-16T05:58:56.781Z,-0.90
2023-03-16T06:01:24.286Z,-0.90
2023-03-16T06:03:52.130Z,-0.80
2023-03-16T06:06:22.885Z,-0.70
2023-03-16T06:08:49.683Z,-0.70
2023-03-16T06:11:17.715Z,-0.60
2023-03-16T06:13:44.567Z,-0.50
2023-03-16T06:16:13.804Z,-0.40
2023-03-16T06:18:41.286Z,-0.40
2023-03-16T06:21:08.385Z,-0.30
2023-03-16T06:23:35.506Z,-0.20
2023-03-16T06:26:02.466Z,-0.10
2023-03-16T06:28:30.974Z,0.00
2023-03-16T06:30:58.619Z,0.20
2023-03-16T06:33:26.200Z,0.40
2023-03-16T06:35:53.382Z,0.60
2023-03-16T06:38:21.033Z,0.70
2023-03-16T06:40:53.363Z,0.80
2023-03-16T06:43:20.294Z,0.80
2023-03-16T06:45:47.347Z,1.00
2023-03-16T06:48:14.171Z,0.90
2023-03-16T06:50:41.002Z,0.80
2023-03-16T06:53:07.806Z,0.90
2023-03-16T06:55:34.638Z,0.90
2023-03-16T06:58:01.409Z,0.90
2023-03-16T07:00:28.715Z,1.00
2023-03-16T07:02:55.690Z,1.00
2023-03-16T07:05:22.680Z,1.10
2023-03-16T07:07:49.528Z,1.20
2023-03-16T07:10:17.928Z,1.30
2023-03-16T07:12:45.406Z,1.50
2023-03-16T07:15:13.392Z,1.60
2023-03-16T07:17:42.619Z,1.70
2023-03-16T07:20:12.678Z,1.90
2023-03-16T07:22:41.652Z,2.10
2023-03-16T07:25:11.366Z,2.30
2023-03-16T07:27:38.943Z,2.40
2023-03-16T07:30:06.643Z,2.60
2023-03-16T07:32:33.569Z,3.00
2023-03-16T07:35:00.407Z,3.40
2023-03-16T07:37:27.453Z,4.10
2023-03-16T07:39:54.216Z,4.80
2023-03-16T07:42:22.695Z,4.90
2023-03-16T07:44:51.815Z,4.80
2023-03-16T07:47:19.363Z,4.60
2023-03-16T07:49:46.264Z,4.10
2023-03-16T07:52:13.679Z,4.00
2023-03-16T07:54:41.417Z,4.00
2023-03-16T07:57:09.281Z,4.30
2023-03-16T07:59:36.185Z,4.70
2023-03-16T08:02:03.815Z,5.40
2023-03-16T08:04:31.287Z,5.90
2023-03-16T08:07:02.091Z,6.40
2023-03-16T08:09:29.068Z,7.00
2023-03-16T08:11:55.855Z,7.40
2023-03-16T08:14:23.748Z,7.80
2023-03-16T08:16:50.643Z,8.60
2023-03-16T08:19:17.816Z,8.80
2023-03-16T08:21:59.969Z,9.00
2023-03-16T08:24:29.532Z,9.00
2023-03-16T08:26:57.512Z,8.80
2023-03-16T08:29:26.230Z,8.70
2023-03-16T08:31:56.218Z,8.20
2023-03-16T08:34:24.789Z,8.10
2023-03-16T08:36:51.673Z,7.50
2023-03-16T08:39:18.562Z,7.50
2023-03-16T08:41:47.012Z,7.00
2023-03-16T08:44:14.088Z,6.40
2023-03-16T08:46:42.345Z,5.90
2023-03-16T08:49:09.417Z,5.50
2023-03-16T08:51:37.005Z,5.30
2023-03-16T08:54:03.853Z,5.30
2023-03-16T08:56:30.746Z,5.30
2023-03-16T08:58:57.679Z,5.40
2023-03-16T09:01:25.766Z,5.50
2023-03-16T09:03:52.974Z,6.00
2023-03-16T09:06:20.046Z,6.50
2023-03-16T09:08:47.786Z,6.80
2023-03-16T09:11:18.821Z,6.80
2023-03-16T09:13:47.255Z,7.20
2023-03-16T09:16:15.831Z,7.60
2023-03-16T09:18:43.708Z,7.80
2023-03-16T09:21:13.883Z,8.10
2023-03-16T09:23:42.852Z,8.40
2023-03-16T09:26:12.505Z,8.70
2023-03-16T09:28:42.166Z,8.80
2023-03-16T09:31:17.170Z,8.90
2023-03-16T09:33:44.328Z,8.60
2023-03-16T09:36:11.908Z,8.30
2023-03-16T09:38:39.266Z,7.90
2023-03-16T09:41:29.470Z,7.40
2023-03-16T09:44:14.167Z,7.00
2023-03-16T09:46:48.634Z,6.70
2023-03-16T09:49:24.257Z,6.40
2023-03-16T09:52:30.237Z,6.20
2023-03-16T09:55:07.188Z,6.10
2023-03-16T09:57:41.914Z,6.20
2023-03-16T10:00:17.834Z,6.30
2023-03-16T10:03:03.964Z,6.30
2023-03-16T10:05:33.673Z,6.30
2023-03-16T10:08:25.636Z,6.50
2023-03-16T10:11:24.470Z,6.70
2023-03-16T10:14:09.486Z,7.00
2023-03-16T10:16:47.889Z,7.30
2023-03-16T10:19:29.831Z,7.70
2023-03-16T10:22:00.713Z,8.10
2023-03-16T10:24:42.161Z,8.30
2023-03-16T10:27:21.092Z,8.50
2023-03-16T10:29:48.634Z,8.70
2023-03-16T10:32:24.122Z,9.00
2023-03-16T10:35:01.107Z,9.20
2023-03-16T10:37:31.206Z,9.30
2023-03-16T10:40:00.694Z,9.70
2023-03-16T10:42:28.237Z,9.90
2023-03-16T10:45:02.683Z,10.40
2023-03-16T10:47:33.583Z,10.60
2023-03-16T10:50:16.861Z,10.80
2023-03-16T10:52:48.069Z,11.30
2023-03-16T10:55:35.536Z,11.30
2023-03-16T10:58:03.718Z,11.50
2023-03-16T11:00:38.433Z,11.30
2023-03-16T11:03:22.929Z,10.70
2023-03-16T11:06:02.481Z,10.20
2023-03-16T11:08:37.451Z,10.10
2023-03-16T11:11:17.626Z,10.30
2023-03-16T11:13:47.414Z,9.90
2023-03-16T11:16:43.753Z,9.80
2023-03-16T11:19:47.835Z,9.80
2023-03-16T11:22:27.215Z,9.60
2023-03-16T11:25:04.429Z,9.50
2023-03-16T11:27:45.365Z,9.20
2023-03-16T11:30:39.065Z,9.00
2023-03-16T11:33:14.186Z,8.90
2023-03-16T11:36:20.281Z,8.90
2023-03-16T11:38:52.213Z,9.00
2023-03-16T11:41:41.400Z,8.90
2023-03-16T11:44:22.969Z,8.90
2023-03-16T11:47:34.704Z,8.90
2023-03-16T11:50:15.690Z,8.80
2023-03-16T11:53:07.240Z,8.70
2023-03-16T11:56:05.541Z,8.70
2023-03-16T11:58:47.276Z,8.70
2023-03-16T12:01:59.719Z,8.80
2023-03-16T12:04:42.666Z,8.90
2023-03-16T12:08:04.356Z,9.10
2023-03-16T12:11:00.251Z,9.60
2023-03-16T12:13:44.842Z,9.70
2023-03-16T12:16:46.402Z,9.50
2023-03-16T12:19:31.487Z,9.70
2023-03-16T12:22:16.964Z,9.90
2023-03-16T12:24:47.059Z,9.80
2023-03-16T12:27:37.665Z,9.60
2023-03-16T12:30:41.108Z,9.70
2023-03-16T12:33:35.644Z,9.80
2023-03-16T12:36:17.725Z,9.80
2023-03-16T12:39:00.653Z,10.00
2023-03-16T12:42:02.057Z,9.90
2023-03-16T12:44:42.334Z,9.90
2023-03-16T12:47:38.465Z,9.80
2023-03-16T12:50:11.243Z,9.90
2023-03-16T12:52:56.613Z,9.90
2023-03-16T12:55:48.184Z,9.80
2023-03-16T12:58:17.932Z,9.80
2023-03-16T13:00:56.998Z,9.90
2023-03-16T13:03:27.691Z,9.90
2023-03-16T13:05:59.503Z,9.80
2023-03-16T13:08:27.996Z,9.80
2023-03-16T13:11:09.665Z,9.50
2023-03-16T13:13:52.114Z,9.40
2023-03-16T13:16:47.683Z,9.40
2023-03-16T13:19:32.129Z,9.40
2023-03-16T13:22:48.081Z,9.40
2023-03-16T13:25:45.463Z,9.60
2023-03-16T13:28:15.460Z,9.50
2023-03-16T13:30:49.365Z,9.40
2023-03-16T13:33:27.133Z,9.30
2023-03-16T13:35:57.631Z,9.40
2023-03-16T13:38:28.490Z,9.60
2023-03-16T13:41:04.832Z,9.60
2023-03-16T13:43:34.431Z,9.80
2023-03-16T13:46:02.192Z,9.90
2023-03-16T13:48:29.878Z,9.80
2023-03-16T13:50:58.699Z,9.80
2023-03-16T13:53:32.960Z,9.80
2023-03-16T13:56:04.513Z,9.80
2023-03-16T13:58:37.904Z,9.80
2023-03-16T14:01:33.857Z,10.00
2023-03-16T14:04:08.540Z,10.10
2023-03-16T14:06:36.705Z,10.20
2023-03-16T14:09:13.084Z,10.30
2023-03-16T14:11:39.971Z,10.50
2023-03-16T14:14:23.926Z,10.60
2023-03-16T14:16:52.445Z,10.70
2023-03-16T14:19:32.213Z,10.60
2023-03-16T14:22:06.598Z,10.50
2023-03-16T14:24:38.748Z,10.40
2023-03-16T14:27:17.482Z,10.30
2023-03-16T14:29:50.399Z,10.10
2023-03-16T14:32:30.859Z,9.90
2023-03-16T14:35:16.674Z,9.70
2023-03-16T14:37:44.888Z,9.70
2023-03-16T14:40:24.248Z,9.60
2023-03-16T14:42:54.594Z,9.50
2023-03-16T14:45:22.672Z,9.60
2023-03-16T14:47:51.319Z,9.50
2023-03-16T14:50:25.370Z,9.40
2023-03-16T14:52:56.571Z,9.40
2023-03-16T14:55:24.874Z,9.30
2023-03-16T14:57:51.920Z,9.40
2023-03-16T15:00:21.785Z,9.40
2023-03-16T15:03:14.914Z,9.40
2023-03-16T15:05:47.914Z,9.40
2023-03-16T15:08:22.290Z,9.50
2023-03-16T15:10:50.734Z,9.30
2023-03-16T15:13:39.595Z,9.40
2023-03-16T15:16:11.333Z,9.40
2023-03-16T15:18:41.964Z,9.50
2023-03-16T15:21:15.370Z,9.40
2023-03-16T15:23:44.040Z,9.40
2023-03-16T15:26:14.121Z,9.40
2023-03-16T15:28:41.459Z,9.30
2023-03-16T15:31:12.784Z,9.30
2023-03-16T15:33:40.118Z,9.30
2023-03-16T15:36:24.217Z,9.30
2023-03-16T15:38:54.392Z,9.30
2023-03-16T15:41:22.891Z,9.40
2023-03-16T15:43:52.216Z,9.40
2023-03-16T15:46:19.069Z,9.20
2023-03-16T15:48:45.982Z,9.00
2023-03-16T15:51:30.927Z,8.90
2023-03-16T15:54:04.769Z,8.70
2023-03-16T15:56:47.193Z,8.50
2023-03-16T15:59:22.023Z,8.40
2023-03-16T16:01:50.306Z,8.30
2023-03-16T16:04:24.259Z,8.30
2023-03-16T16:06:55.164Z,8.40
2023-03-16T16:09:23.004Z,8.40
2023-03-16T16:11:51.353Z,8.40
2023-03-16T16:14:24.807Z,8.30
2023-03-16T16:16:51.907Z,8.30
2023-03-16T16:19:18.833Z,8.20
2023-03-16T16:21:47.008Z,8.20
2023-03-16T16:24:13.805Z,8.10
2023-03-16T16:26:53.257Z,8.00
2023-03-16T16:29:30.087Z,8.00
2023-03-16T16:31:57.250Z,7.90
2023-03-16T16:34:25.344Z,7.90
2023-03-16T16:36:56.412Z,7.80
2023-03-16T16:39:24.240Z,7.80
2023-03-16T16:41:54.653Z,7.80
2023-03-16T16:44:27.658Z,7.70
2023-03-16T16:46:55.149Z,7.70
2023-03-16T16:49:30.869Z,7.60
2023-03-16T16:51:58.761Z,7.50
2023-03-16T16:54:31.538Z,7.40
2023-03-16T16:57:01.077Z,7.40
2023-03-16T16:59:37.775Z,7.40
2023-03-16T17:02:25.751Z,7.30
2023-03-16T17:04:52.640Z,7.20
2023-03-16T17:07:19.515Z,7.20
2023-03-16T17:09:46.613Z,7.10
2023-03-16T17:12:22.423Z,7.00
2023-03-16T17:14:51.086Z,7.00
2023-03-16T17:17:18.759Z,6.90
2023-03-16T17:19:47.601Z,6.80
2023-03-16T17:22:28.551Z,6.80
2023-03-16T17:24:55.634Z,6.70
2023-03-16T17:27:30.283Z,6.60
2023-03-16T17:29:57.729Z,6.60
2023-03-16T17:32:25.624Z,6.60
2023-03-16T17:34:52.548Z,6.60
2023-03-16T17:37:22.304Z,6.50
2023-03-16T17:39:49.699Z,6.50
2023-03-16T17:42:19.839Z,6.40
2023-03-16T17:44:52.097Z,6.40
2023-03-16T17:47:26.399Z,6.40
2023-03-16T17:49:54.997Z,6.40
2023-03-16T17:52:26.063Z,6.40
2023-03-16T17:54:54.817Z,6.40
2023-03-16T17:57:30.304Z,6.40
2023-03-16T17:59:58.840Z,6.40
2023-03-16T18:02:54.854Z,6.40
2023-03-16T18:05:35.128Z,6.40
2023-03-16T18:08:20.482Z,6.30
2023-03-16T18:10:53.097Z,6.30
2023-03-16T18:13:28.733Z,6.30
2023-03-16T18:15:57.247Z,6.30
2023-03-16T18:18:29.008Z,6.20
2023-03-16T18:20:57.703Z,6.20
2023-03-16T18:23:29.132Z,6.10
2023-03-16T18:26:02.099Z,6.10
2023-03-16T18:28:31.083Z,6.00
2023-03-16T18:30:59.137Z,5.90
2023-03-16T18:33:33.645Z,5.90
2023-03-16T18:36:05.523Z,5.90
2023-03-16T18:38:36.314Z,5.90
2023-03-16T18:41:13.184Z,6.00
2023-03-16T18:43:39.977Z,6.00
2023-03-16T18:46:25.440Z,5.90
2023-03-16T18:49:04.446Z,5.90
2023-03-16T18:51:31.997Z,5.90
2023-03-16T18:53:59.585Z,5.90
2023-03-16T18:56:28.639Z,5.80
2023-03-16T18:58:56.993Z,5.70
2023-03-16T19:01:32.216Z,5.70
2023-03-16T19:04:02.029Z,5.60
2023-03-16T19:06:35.825Z,5.60
2023-03-16T19:09:17.241Z,5.50
2023-03-16T19:11:44.941Z,5.50
2023-03-16T19:14:25.178Z,5.50
2023-03-16T19:16:53.873Z,5.50
2023-03-16T19:19:23.345Z,5.50
2023-03-16T19:21:57.414Z,5.40
2023-03-16T19:24:34.232Z,5.40
2023-03-16T19:27:01.976Z,5.40
2023-03-16T19:29:34.783Z,5.40
2023-03-16T19:32:02.211Z,5.30
2023-03-16T19:34:29.814Z,5.30
2023-03-16T19:36:56.850Z,5.30
2023-03-16T19:39:23.817Z,5.20
2023-03-16T19:41:57.987Z,5.30
2023-03-16T19:44:28.307Z,5.20
2023-03-16T19:46:56.036Z,5.20
2023-03-16T19:49:27.039Z,5.20
2023-03-16T19:51:56.145Z,5.10
2023-03-16T19:54:34.989Z,5.10
2023-03-16T19:57:12.356Z,5.10
2023-03-16T19:59:41.598Z,5.00
2023-03-16T20:02:29.587Z,5.00
2023-03-16T20:04:56.725Z,5.00
2023-03-16T20:07:23.575Z,4.90
2023-03-16T20:09:51.224Z,4.90
2023-03-16T20:12:22.591Z,4.90
2023-03-16T20:14:51.295Z,4.90
2023-03-16T20:17:29.694Z,4.80
2023-03-16T20:19:57.675Z,4.80
2023-03-16T20:22:28.734Z,4.80
2023-03-16T20:24:57.844Z,4.80
2023-03-16T20:27:26.900Z,4.80
2023-03-16T20:29:53.734Z,4.70
2023-03-16T20:32:25.957Z,4.70
2023-03-16T20:34:53.915Z,4.70
2023-03-16T20:37:28.492Z,4.70
2023-03-16T20:39:58.963Z,4.60
2023-03-16T20:42:35.191Z,4.60
2023-03-16T20:45:02.201Z,4.60
2023-03-16T20:47:29.101Z,4.60
2023-03-16T20:49:59.132Z,4.60
2023-03-16T20:52:30.844Z,4.60
2023-03-16T20:54:58.581Z,4.60
2023-03-16T20:57:29.035Z,4.50
2023-03-16T20:59:56.487Z,4.50
2023-03-16T21:02:34.008Z,4.50
2023-03-16T21:05:04.225Z,4.50
2023-03-16T21:07:31.922Z,4.40
2023-03-16T21:09:59.034Z,4.40
2023-03-16T21:12:32.677Z,4.40
2023-03-16T21:15:02.553Z,4.40
2023-03-16T21:17:37.131Z,4.40
2023-03-16T21:20:20.242Z,4.40
2023-03-16T21:22:47.277Z,4.40
2023-03-16T21:25:30.552Z,4.40
2023-03-16T21:28:05.139Z,4.40
2023-03-16T21:30:38.304Z,4.50
2023-03-16T21:33:38.903Z,4.40
2023-03-16T21:36:19.699Z,4.40
2023-03-16T21:38:47.332Z,4.40
2023-03-16T21:41:14.995Z,4.40
2023-03-16T21:43:44.084Z,4.50
2023-03-16T21:46:16.977Z,4.50
2023-03-16T21:48:45.887Z,4.50
2023-03-16T21:51:19.849Z,4.50
2023-03-16T21:53:49.154Z,4.50
2023-03-16T21:56:22.492Z,4.50
2023-03-16T21:58:50.131Z,4.60
2023-03-16T22:01:25.590Z,4.60
2023-03-16T22:03:57.515Z,4.60
2023-03-16T22:06:29.757Z,4.60
2023-03-16T22:08:59.727Z,4.70
2023-03-16T22:11:29.800Z,4.70
2023-03-16T22:13:59.010Z,4.70
2023-03-16T22:16:37.152Z,4.80
2023-03-16T22:19:04.575Z,4.70
2023-03-16T22:21:43.791Z,4.70
2023-03-16T22:24:22.144Z,4.70
2023-03-16T22:26:50.156Z,4.60
2023-03-16T22:29:25.267Z,4.70
2023-03-16T22:32:02.941Z,4.60
2023-03-16T22:34:41.999Z,4.60
2023-03-16T22:37:12.950Z,4.60
2023-03-16T22:39:40.720Z,4.50
2023-03-16T22:42:40.330Z,4.50
2023-03-16T22:45:25.606Z,4.40
2023-03-16T22:47:54.471Z,4.50
2023-03-16T22:50:24.317Z,4.40
2023-03-16T22:52:56.070Z,4.40
2023-03-16T22:55:32.160Z,4.30
2023-03-16T22:58:10.432Z,4.40
2023-03-16T23:00:38.199Z,4.40
2023-03-16T23:03:05.759Z,4.30
2023-03-16T23:05:32.723Z,4.40
2023-03-16T23:08:02.568Z,4.40
2023-03-16T23:10:31.226Z,4.40
2023-03-16T23:12:59.693Z,4.40
2023-03-16T23:15:30.348Z,4.40
2023-03-16T23:17:57.392Z,4.50
2023-03-16T23:20:32.665Z,4.50
2023-03-16T23:22:59.721Z,4.50
2023-03-16T23:25:26.517Z,4.60
2023-03-16T23:27:53.567Z,4.60
2023-03-16T23:30:23.455Z,4.60
2023-03-16T23:32:53.321Z,4.60
2023-03-16T23:35:24.542Z,4.60
2023-03-16T23:37:52.404Z,4.70
2023-03-16T23:40:21.544Z,4.70
2023-03-16T23:42:49.366Z,4.70
2023-03-16T23:45:39.733Z,4.70
2023-03-16T23:48:13.768Z,4.70
2023-03-16T23:50:41.865Z,4.70
2023-03-16T23:53:18.971Z,4.70
2023-03-16T23:55:47.078Z,4.70
2023-03-16T23:58:18.729Z,4.70
